Главная страница
METAR-TAF:

METAR-TAF

Аэропорты :

Шармеллек

Хевиз, Венгрия

широта: 46-41-11N, долгота: 017-09-33E, высота над уровнем моря: 124 м

Текущие метеонаблюдения

Эта сводка был подготовлена 38 минут назад, в 06:15 UTC
Ветер 3 Узел от северо-западный
Температура 4°C
Влажность 87%
Давление 1024 hPa
Видимость 10 км и более
Нет облачности ниже 1500 м, и нет кучево-дождевой облачности

METAR: LHSM 190615Z 31003KT CAVOK 04/02 Q1024 NOSIG

Время: 07:53 (06:53 UTC)

Прогноз

Эта сводка был подготовлена 1 час и 38 минут назад, в 05:15 UTC
Прогноз действительный с 19-го 06 UTC до 19-го 15 UTC
Ветер 7 Узел от северный
Видимость 10 км и более
Нет облачности ниже 1500 м, и нет кучево-дождевой облачности

TAF: LHSM 190515Z 1906/1915 35007KT CAVOK

Метеонаблюдения и прогнозы для более 4000 аэропортов (сводки METAR и TAF).

Имеющиеся станции представлены на карте желтыми и красными точками.

Чтобы увидеть название станции, наведите на нее мышь.

Затем щелкните, чтобы увидеть метеонаблюдения и метеопрогнозы.

Управление картой: чтобы увеличить масштаб, щелкните зеленые кнопки с черным крестиком; чтобы уменьшить масштаб, щелкните зеленую кнопку с тире; для просмотра соседних карт щелкайте зеленые стрелки.


METAR-TAF: